Renner, SD (57055)

3:17 PM CDT on August 30, 2014 (GMT -0500)
477th | Change Station
CLOSE
Current Station
Personal Weather Station
Location: Baltic, SD
Elevation: 1562 ft
Nearby Weather Stations

Elev 1562 ft 43.71 °N, 96.67 °W | Updated 9 minutes ago

Mostly Cloudy
Mostly Cloudy
69.8 °F
Feels Like 69.8 °F
N
4.2
Wind Variable Wind from West

Today
High -- | Low -- °F
--% Chance of Precip.
Yesterday
High -- | Low -- °F
Precip. -- in
6:48 AM 8:05 PM
Waxing Crescent, 24% visible
Pressure 29.91 in
Visibility 10.0 miles
Clouds Mostly Cloudy 1900 ft
Dew Point 63 °F
Humidity 79%
Rainfall 0.00 in
Snow Depth Not available.
UV 4 out of 12
Pollen 9.00 out of 12
Air Quality Not available.
Flu Activity Not available.
METAR KFSD 301956Z 21006KT 10SM BKN019 21/16 A2991

More Conditions Fewer Conditions

Pressure 29.91 in
Visibility 10.0 miles
Clouds Mostly Cloudy 1900 ft
Dew Point 63 °F
Humidity 79%
Rainfall 0.00 in
Snow Depth Not available.
UV 4 out of 12
Pollen 9.00 out of 12
Air Quality Not available.
Flu Activity Not available.
METAR KFSD 301956Z 21006KT 10SM BKN019 21/16 A2991

More Conditions Fewer Conditions

10-Day Weather Forecast

Almanac

Astronomy

Aug. 30, 2014 Rise Set
Actual Time 6:48 AM CDT 8:05 PM CDT
Civil Twilight 6:18 AM CDT 8:35 PM CDT
Nautical Twilight 5:42 AM CDT 9:10 PM CDT
Astronomical Twilight 5:05 AM CDT 9:48 PM CDT
Moon 11:47 AM CDT 10:30 PM CDT
Length of Visible Light 14h 16m
Length of Day
13h 17m
Tomorrow will be 2m 51s shorter.
Waxing Crescent, 24% of the Moon is Illuminated
Today
Waxing Crescent
Sep 2
First Quarter
Sep 8
Full
Sep 15
Last Quarter
Sep 24
New

Today's Extremes

State Highs State Lows

Community

WunderPhotos

Upload Photos

1,748,622 photos uploaded!

WunderBlogs® & News

Nearby

Snow Depth

Station Depth Elevation
Blind Park 0 in 6890 ft

Earthquake Activity

City Distance Mag. Time & Date
No recent earthquake activity has been reported nearby.
Minimum magnitude displayed is 2.5.

Coastal Water Temperatures

Place Temperature
No Stations Reporting

Nearby Weather Stations